Flight Track Log - Related Links

Times and Time Zones

All times are in EDT time to prevent confusion due to time zone crossing. See the NKS254 flight status page for this flight to view local times or setup timezone preferences in your user account.

Time Position Orientation Groundspeed Altitude Reporting Facility
EDT Latitude Longitude Course Direction KTS MPH feet Rate Location/Type
Fri 02:37:57 AM 32.8640 -97.0260 176° South 154 177 2,200  Level FlightAware ADS-B
Fri 02:38:24 AM 32.8430 -97.0210 169° South 191 220 2,800 1,527 Climbing FlightAware ADS-B
Fri 02:38:52 AM 32.8170 -97.0100 160° South 229 264 3,600 2,143 Climbing FlightAware ADS-B
Fri 02:39:20 AM 32.7890 -96.9950 156° South 252 290 4,800 2,700 Climbing FlightAware ADS-B
Fri 02:39:32 AM 32.7800 -96.9810 127° Southeast 265 305 5,400 3,231 Climbing FlightAware ADS-B
Fri 02:39:46 AM 32.7770 -96.9600 100° East 275 316 6,200 3,136 Climbing FlightAware ADS-B
Fri 02:40:16 AM 32.7830 -96.9150 81° East 287 330 7,700 3,000 Climbing FlightAware ADS-B
Fri 02:41:12 AM 32.8100 -96.8310 69° East 297 342 10,500 2,265 Climbing FlightAware ADS-B
Fri 02:41:54 AM 32.8330 -96.7620 68° East 340 391 11,400 2,074 Climbing FlightAware ADS-B
Fri 02:42:33 AM 32.8550 -96.6920 69° East 343 395 13,300 2,500 Climbing FlightAware ADS-B
Fri 02:43:18 AM 32.8810 -96.6120 69° East 359 413 14,900 2,045 Climbing FlightAware ADS-B
Fri 02:44:01 AM 32.9070 -96.5290 70° East 375 432 16,300 2,122 Climbing FlightAware ADS-B
Fri 02:44:40 AM 32.9300 -96.4580 69° East 377 434 17,800 2,280 Climbing FlightAware ADS-B
Fri 02:44:51 AM 32.9382 -96.4331 69° East 382 440 18,200 2,195 Climbing FlightAware ADS-B
Fri 02:45:21 AM 32.9570 -96.3738 69° East 387 445 19,300 2,000 Climbing FlightAware ADS-B
Fri 02:45:39 AM 32.9681 -96.3373 70° East 394 453 19,800 1,655 Climbing FlightAware ADS-B
Fri 02:45:50 AM 32.9729 -96.3135 76° East 397 457 20,100 1,714 Climbing FlightAware ADS-B
Fri 02:46:21 AM 32.9819 -96.2472 81° East 404 465 21,000 1,770 Climbing FlightAware ADS-B
Fri 02:46:51 AM 32.9912 -96.1794 81° East 411 473 21,900 1,629 Climbing FlightAware ADS-B
Fri 02:47:31 AM 33.0038 -96.0886 81° East 422 486 22,900 1,521 Climbing FlightAware ADS-B
Fri 02:48:02 AM 33.0135 -96.0183 81° East 427 491 23,700 1,475 Climbing FlightAware ADS-B
Fri 02:48:32 AM 33.0232 -95.9475 81° East 435 501 24,400 1,355 Climbing FlightAware ADS-B
Fri 02:49:04 AM 33.0334 -95.8725 81° East 439 505 25,100 1,258 Climbing FlightAware ADS-B
Fri 02:49:34 AM 33.0434 -95.7987 81° East 453 521 25,700 1,235 Climbing FlightAware ADS-B
Fri 02:50:12 AM 33.0560 -95.7052 81° East 460 529 26,500 1,235 Climbing FlightAware ADS-B
Fri 02:50:42 AM 33.0663 -95.6279 81° East 468 539 27,100 1,200 Climbing FlightAware ADS-B
Fri 02:51:32 AM 33.0930 -95.5050 75° East 473 544 28,100 1,239 Climbing FlightAware ADS-B
Fri 02:52:14 AM 33.1230 -95.4040 70° East 479 551 29,000 1,326 Climbing FlightAware ADS-B
Fri 02:52:33 AM 33.1385 -95.3530 70° East 29,500 1,358 Climbing FlightAware ADS-B
Fri 02:53:07 AM 33.1640 -95.2671 70° East 484 557 30,200 1,433 Climbing FlightAware ADS-B
Fri 02:53:40 AM 33.1890 -95.1850 70° East 480 552 31,100 1,521 Climbing FlightAware ADS-B
Fri 02:54:18 AM 33.2170 -95.0900 71° East 479 551 32,000 1,385 Climbing FlightAware ADS-B
Fri 02:54:32 AM 33.2278 -95.0534 71° East 481 554 32,300 1,091 Climbing FlightAware ADS-B
Fri 02:55:02 AM 33.2490 -94.9800 71° East 483 556 32,800 1,050 Climbing FlightAware ADS-B
Fri 02:55:12 AM 33.2571 -94.9543 69° East 482 555 33,000 1,091 Climbing FlightAware ADS-B
Fri 02:55:46 AM 33.2820 -94.8690 71° East 486 559 33,600 1,054 Climbing FlightAware ADS-B
Fri 02:56:26 AM 33.3130 -94.7660 70° East 487 560 34,300 984 Climbing FlightAware ADS-B
Fri 02:56:47 AM 33.3277 -94.7146 71° East 490 564 34,600 941 Climbing FlightAware ADS-B
Fri 02:57:17 AM 33.3505 -94.6368 71° East 492 566 35,100 952 Climbing FlightAware ADS-B
Fri 02:57:50 AM 33.3740 -94.5560 71° East 493 567 35,600 1,216 Climbing FlightAware ADS-B
Fri 02:58:31 AM 33.4060 -94.4480 70° East 485 558 36,600 741 Climbing FlightAware ADS-B
Fri 02:59:11 AM 33.4320 -94.3620 70° East 485 558 36,600  Level FlightAware ADS-B
Fri 02:59:59 AM 33.4630 -94.2590 70° East 485 558 36,600 333 Level FlightAware ADS-B
Fri 03:00:23 AM 33.4883 -94.1626 73° East 485 558 37,000 320 Climbing FlightAware ADS-B
Fri 03:01:14 AM 33.5270 -94.0380 70° East 482 555 37,000  Level FlightAware ADS-B
Fri 03:01:27 AM 33.5406 -94.0048 64° Northeast 482 555 37,000  Level FlightAware ADS-B
Fri 03:02:08 AM 33.5797 -93.9051 65° Northeast 482 555 37,000  Level FlightAware ADS-B
Fri 03:02:57 AM 33.6250 -93.7874 65° Northeast 481 554 37,000  Level FlightAware ADS-B
Fri 03:03:33 AM 33.6587 -93.7004 65° Northeast 479 551 37,000  Level FlightAware ADS-B
Fri 03:04:03 AM 33.6868 -93.6279 65° Northeast 477 549 37,000  Level FlightAware ADS-B
Fri 03:04:33 AM 33.7149 -93.5548 65° Northeast 477 549 37,000  Level FlightAware ADS-B
Fri 03:05:04 AM 33.7432 -93.4808 65° Northeast 478 550 37,000  Level FlightAware ADS-B
Fri 03:05:35 AM 33.7718 -93.4061 65° Northeast 479 551 37,000  Level FlightAware ADS-B
Fri 03:07:06 AM 33.8562 -93.1850 65° Northeast 482 555 37,000  Level FlightAware ADS-B
Fri 03:08:00 AM 33.9054 -93.0554 65° Northeast 482 555 37,000  Level FlightAware ADS-B
Fri 03:08:55 AM 33.9497 -92.9439 65° Northeast 475 547 37,000  Level Memphis Center
Fri 03:09:55 AM 34.0069 -92.7978 65° Northeast 475 547 37,000  Level Memphis Center
Fri 03:10:55 AM 34.0597 -92.6564 66° East 470 541 37,000  Level Memphis Center
Fri 03:11:55 AM 34.1150 -92.4897 68° East 470 541 37,000  Level Memphis Center
Fri 03:12:55 AM 34.1672 -92.3478 66° East 475 547 37,000  Level Memphis Center
Fri 03:13:55 AM 34.2217 -92.2008 66° East 470 541 37,000  Level Memphis Center
Fri 03:14:55 AM 34.2761 -92.0564 65° Northeast 470 541 37,000  Level Memphis Center
Fri 03:15:55 AM 34.3281 -91.9139 66° East 470 541 37,000  Level Memphis Center
Fri 03:16:55 AM 34.3839 -91.7664 65° Northeast 475 547 37,000  Level Memphis Center
Fri 03:17:55 AM 34.4311 -91.6414 65° Northeast 468 539 37,000  Level Memphis Center
Fri 03:18:55 AM 34.4828 -91.4936 67° East 462 532 37,000  Level Memphis Center
Fri 03:19:55 AM 34.5339 -91.3506 67° East 462 532 37,000  Level Memphis Center
Fri 03:20:55 AM 34.5894 -91.2047 65° Northeast 462 532 37,000  Level Memphis Center
Fri 03:21:55 AM 34.6383 -91.0589 68° East 462 532 37,000  Level Memphis Center
Fri 03:22:55 AM 34.6975 -90.9028 65° Northeast 462 532 37,000  Level Memphis Center
Fri 03:23:55 AM 34.7481 -90.7564 67° East 457 526 37,000  Level Memphis Center
Fri 03:24:55 AM 34.7986 -90.6100 67° East 457 526 37,000  Level Memphis Center
Fri 03:25:55 AM 34.8508 -90.4658 66° East 457 526 37,000  Level Memphis Center
Fri 03:26:55 AM 34.9008 -90.3242 67° East 457 526 37,000  Level Memphis Center
Fri 03:27:55 AM 34.9531 -90.1797 66° East 452 520 37,000  Level Memphis Center
Fri 03:28:55 AM 35.0047 -90.0350 66° East 457 526 37,000  Level Memphis Center
Fri 03:29:55 AM 35.0525 -89.9031 66° East 457 526 37,000  Level Memphis Center
Fri 03:30:55 AM 35.1019 -89.7556 68° East 463 533 37,000  Level Memphis Center
Fri 03:31:55 AM 35.1531 -89.6103 67° East 463 533 37,000  Level Memphis Center
Fri 03:32:55 AM 35.2083 -89.4497 67° East 458 527 37,000  Level Memphis Center
Fri 03:33:55 AM 35.2594 -89.3042 67° East 458 527 37,000  Level Memphis Center
Fri 03:34:55 AM 35.3103 -89.1586 67° East 458 527 37,000  Level Memphis Center
Fri 03:35:55 AM 35.3589 -89.0153 67° East 458 527 37,000  Level Memphis Center
Fri 03:36:55 AM 35.4072 -88.8719 67° East 452 520 37,000  Level Memphis Center
Fri 03:42:42 AM 35.6930 -88.0370 67° East 457 526 37,000  Level FlightAware ADS-B
Fri 03:43:30 AM 35.7320 -87.9220 67° East 460 529 37,000  Level FlightAware ADS-B
Fri 03:44:06 AM 35.7600 -87.8360 68° East 463 533 37,000  Level FlightAware ADS-B
Fri 03:44:52 AM 35.7960 -87.7280 68° East 466 536 37,000  Level FlightAware ADS-B
Fri 03:45:30 AM 35.8290 -87.6280 68° East 467 537 37,000 71 Level FlightAware ADS-B
Fri 03:46:17 AM 35.8660 -87.5140 68° East 466 536 37,100  Climbing FlightAware ADS-B
Fri 03:46:58 AM 35.9000 -87.4120 68° East 466 536 37,000 -74 Descending FlightAware ADS-B
Fri 03:47:38 AM 35.9330 -87.3140 67° East 466 536 37,000  Level FlightAware ADS-B
Fri 03:48:22 AM 35.9680 -87.2050 68° East 465 535 37,000  Level FlightAware ADS-B
Fri 03:49:06 AM 36.0040 -87.0960 68° East 465 535 37,000  Level FlightAware ADS-B
Fri 03:49:21 AM 36.0157 -87.0601 68° East 466 536 37,000  Level FlightAware ADS-B
Fri 03:49:51 AM 36.0399 -86.9856 68° East 465 535 37,000  Level FlightAware ADS-B
Fri 03:50:21 AM 36.0642 -86.9106 68° East 465 535 37,000  Level FlightAware ADS-B
Fri 03:51:00 AM 36.0952 -86.8150 68° East 465 535 37,000  Level FlightAware ADS-B
Fri 03:51:31 AM 36.1197 -86.7388 68° East 466 536 37,000  Level FlightAware ADS-B
Fri 03:52:09 AM 36.1494 -86.6467 68° East 464 534 37,000  Level FlightAware ADS-B
Fri 03:52:45 AM 36.1785 -86.5574 68° East 464 534 37,000  Level FlightAware ADS-B
Fri 03:53:16 AM 36.2031 -86.4814 68° East 465 535 37,000  Level FlightAware ADS-B
Fri 03:53:46 AM 36.2274 -86.4059 68° East 467 537 37,000  Level FlightAware ADS-B
Fri 03:54:16 AM 36.2513 -86.3313 68° East 468 539 37,000  Level FlightAware ADS-B
Fri 03:54:47 AM 36.2756 -86.2556 68° East 469 540 37,000  Level FlightAware ADS-B
Fri 03:55:21 AM 36.3020 -86.1730 68° East 470 541 37,000  Level FlightAware ADS-B
Fri 03:56:07 AM 36.3399 -86.0557 68° East 470 541 37,000  Level FlightAware ADS-B
Fri 03:56:38 AM 36.3647 -85.9776 68° East 470 541 37,000  Level FlightAware ADS-B
Fri 03:57:08 AM 36.3889 -85.9013 68° East 469 540 37,000  Level FlightAware ADS-B
Fri 03:57:39 AM 36.4130 -85.8250 69° East 469 540 37,000  Level FlightAware ADS-B
Fri 03:58:14 AM 36.4410 -85.7365 69° East 468 539 37,000  Level FlightAware ADS-B
Fri 03:58:55 AM 36.4720 -85.6390 68° East 467 537 37,000  Level FlightAware ADS-B
Fri 03:59:06 AM 36.4812 -85.6086 69° East 466 536 37,000  Level FlightAware ADS-B
Fri 03:59:38 AM 36.5062 -85.5288 69° East 466 536 37,000  Level FlightAware ADS-B
Fri 04:00:08 AM 36.5297 -85.4535 69° East 467 537 37,000  Level FlightAware ADS-B
Fri 04:00:39 AM 36.5542 -85.3749 69° East 468 539 37,000  Level FlightAware ADS-B
Fri 04:01:10 AM 36.5778 -85.2990 69° East 468 539 37,000  Level FlightAware ADS-B
Fri 04:01:43 AM 36.6040 -85.2144 69° East 468 539 37,000  Level FlightAware ADS-B
Fri 04:02:14 AM 36.6277 -85.1379 69° East 470 541 37,000  Level FlightAware ADS-B
Fri 04:02:44 AM 36.6514 -85.0612 69° East 470 541 37,000  Level FlightAware ADS-B
Fri 04:03:15 AM 36.6754 -84.9829 69° East 471 542 37,000  Level FlightAware ADS-B
Fri 04:03:48 AM 36.7006 -84.9007 69° East 471 542 37,000  Level FlightAware ADS-B
Fri 04:04:18 AM 36.7242 -84.8237 69° East 471 542 37,000  Level FlightAware ADS-B
Fri 04:04:50 AM 36.7483 -84.7445 69° East 470 541 37,000  Level FlightAware ADS-B
Fri 04:05:20 AM 36.7716 -84.6680 69° East 469 540 37,000  Level FlightAware ADS-B
Fri 04:06:05 AM 36.8058 -84.5542 69° East 467 537 37,000  Level FlightAware ADS-B
Fri 04:06:36 AM 36.8294 -84.4764 69° East 466 536 37,000  Level FlightAware ADS-B
Fri 04:07:06 AM 36.8528 -84.3997 69° East 465 535 37,000  Level FlightAware ADS-B
Fri 04:07:37 AM 36.8755 -84.3235 70° East 465 535 37,000  Level FlightAware ADS-B
Fri 04:08:07 AM 36.8983 -84.2469 70° East 465 535 37,000  Level FlightAware ADS-B
Fri 04:08:39 AM 36.9221 -84.1671 70° East 465 535 37,000  Level FlightAware ADS-B
Fri 04:09:10 AM 36.9452 -84.0899 69° East 465 535 37,000  Level FlightAware ADS-B
Fri 04:09:49 AM 36.9741 -83.9922 70° East 467 537 37,000  Level FlightAware ADS-B
Fri 04:10:21 AM 36.9987 -83.9094 70° East 467 537 37,000  Level FlightAware ADS-B
Fri 04:10:52 AM 37.0213 -83.8330 70° East 467 537 37,000  Level FlightAware ADS-B
Fri 04:11:22 AM 37.0429 -83.7548 71° East 466 536 37,000  Level FlightAware ADS-B
Fri 04:11:53 AM 37.0637 -83.6778 71° East 465 535 37,000  Level FlightAware ADS-B
Fri 04:12:23 AM 37.0849 -83.5995 71° East 465 535 37,000  Level FlightAware ADS-B
Fri 04:12:54 AM 37.1061 -83.5206 71° East 465 535 37,000  Level FlightAware ADS-B
Fri 04:13:25 AM 37.1269 -83.4434 71° East 464 534 37,000  Level FlightAware ADS-B
Fri 04:13:55 AM 37.1477 -83.3655 71° East 464 534 37,000  Level FlightAware ADS-B
Fri 04:14:26 AM 37.1687 -83.2870 71° East 463 533 37,000  Level FlightAware ADS-B
Fri 04:14:56 AM 37.1892 -83.2103 71° East 463 533 37,000  Level FlightAware ADS-B
Fri 04:15:27 AM 37.2097 -83.1334 71° East 463 533 37,000  Level FlightAware ADS-B
Fri 04:15:58 AM 37.2307 -83.0550 71° East 464 534 37,000  Level FlightAware ADS-B
Fri 04:16:28 AM 37.2515 -82.9766 72° East 463 533 37,000  Level FlightAware ADS-B
Fri 04:16:59 AM 37.2724 -82.8977 72° East 464 534 37,000  Level FlightAware ADS-B
Fri 04:17:30 AM 37.2928 -82.8203 72° East 463 533 37,000  Level FlightAware ADS-B
Fri 04:18:00 AM 37.3133 -82.7420 72° East 463 533 37,000  Level FlightAware ADS-B
Fri 04:18:31 AM 37.3335 -82.6653 72° East 463 533 37,000  Level FlightAware ADS-B
Fri 04:19:01 AM 37.3536 -82.5883 72° East 464 534 37,000  Level FlightAware ADS-B
Fri 04:19:31 AM 37.3738 -82.5104 72° East 465 535 37,000  Level FlightAware ADS-B
Fri 04:20:05 AM 37.3962 -82.4238 72° East 465 535 37,000  Level FlightAware ADS-B
Fri 04:20:35 AM 37.4162 -82.3469 72° East 464 534 37,000  Level FlightAware ADS-B
Fri 04:21:05 AM 37.4361 -82.2694 72° East 463 533 37,000  Level FlightAware ADS-B
Fri 04:21:36 AM 37.4562 -82.1915 72° East 463 533 37,000  Level FlightAware ADS-B
Fri 04:22:10 AM 37.4787 -82.1033 72° East 463 533 37,000  Level FlightAware ADS-B
Fri 04:22:41 AM 37.4990 -82.0244 72° East 464 534 37,000  Level FlightAware ADS-B
Fri 04:23:12 AM 37.5192 -81.9457 72° East 464 534 37,000  Level FlightAware ADS-B
Fri 04:23:42 AM 37.5389 -81.8680 72° East 464 534 37,000  Level FlightAware ADS-B
Fri 04:24:12 AM 37.5585 -81.7906 72° East 464 534 37,000  Level FlightAware ADS-B
Fri 04:24:43 AM 37.5785 -81.7106 72° East 464 534 37,000  Level FlightAware ADS-B
Fri 04:25:14 AM 37.5985 -81.6315 72° East 465 535 37,000  Level FlightAware ADS-B
Fri 04:25:44 AM 37.6180 -81.5537 72° East 465 535 37,000  Level FlightAware ADS-B
Fri 04:26:15 AM 37.6379 -81.4739 72° East 466 536 37,000  Level FlightAware ADS-B
Fri 04:26:48 AM 37.6591 -81.3891 72° East 467 537 37,000  Level FlightAware ADS-B
Fri 04:27:27 AM 37.6848 -81.2865 72° East 467 537 37,000  Level FlightAware ADS-B
Fri 04:28:05 AM 37.7090 -81.1882 73° East 468 539 37,000  Level FlightAware ADS-B
Fri 04:28:36 AM 37.7282 -81.1096 73° East 467 537 37,000  Level FlightAware ADS-B
Fri 04:29:14 AM 37.7525 -81.0102 73° East 467 537 37,000  Level FlightAware ADS-B
Fri 04:29:47 AM 37.7735 -80.9244 73° East 467 537 37,000  Level FlightAware ADS-B
Fri 04:30:20 AM 37.7943 -80.8388 73° East 466 536 37,000  Level FlightAware ADS-B
Fri 04:31:04 AM 37.8220 -80.7241 73° East 465 535 37,000  Level FlightAware ADS-B
Fri 04:31:35 AM 37.8415 -80.6438 73° East 465 535 37,000  Level FlightAware ADS-B
Fri 04:32:05 AM 37.8604 -80.5654 73° East 464 534 37,000  Level FlightAware ADS-B
Fri 04:32:13 AM 37.8666 -80.5451 69° East 462 532 37,000  Level FlightAware ADS-B
Fri 04:32:22 AM 37.8755 -80.5229 63° Northeast 462 532 37,000  Level FlightAware ADS-B
Fri 04:33:24 AM 37.9440 -80.3870 57° Northeast 458 527 37,000  Level FlightAware ADS-B
Fri 04:34:11 AM 37.9980 -80.2760 58° Northeast 457 526 37,000  Level FlightAware ADS-B
Fri 04:35:03 AM 38.0540 -80.1590 59° Northeast 456 525 37,000  Level FlightAware ADS-B
Fri 04:35:47 AM 38.1030 -80.0570 59° Northeast 454 522 37,000  Level FlightAware ADS-B
Fri 04:36:27 AM 38.1460 -79.9670 59° Northeast 453 521 37,000  Level FlightAware ADS-B
Fri 04:37:09 AM 38.1930 -79.8700 58° Northeast 451 519 37,000  Level FlightAware ADS-B
Fri 04:37:54 AM 38.2400 -79.7710 59° Northeast 450 518 37,000  Level FlightAware ADS-B
Fri 04:38:33 AM 38.2820 -79.6830 59° Northeast 448 516 37,000  Level FlightAware ADS-B
Fri 04:39:19 AM 38.3320 -79.5780 59° Northeast 447 514 37,000  Level FlightAware ADS-B
Fri 04:40:01 AM 38.3770 -79.4840 59° Northeast 446 513 37,000  Level FlightAware ADS-B
Fri 04:41:11 AM 38.4190 -79.3930 59° Northeast 446 513 37,000  Level FlightAware ADS-B
Fri 04:41:51 AM 38.4930 -79.2370 59° Northeast 446 513 37,000  Level FlightAware ADS-B
Fri 04:42:35 AM 38.5390 -79.1370 60° Northeast 444 511 37,000  Level FlightAware ADS-B
Fri 04:43:11 AM 38.5770 -79.0560 59° Northeast 444 511 37,000  Level FlightAware ADS-B
Fri 04:43:59 AM 38.6270 -78.9490 59° Northeast 444 511 37,000  Level FlightAware ADS-B
Fri 04:44:40 AM 38.6710 -78.8560 59° Northeast 444 511 37,000  Level FlightAware ADS-B
Fri 04:45:16 AM 38.7080 -78.7730 60° Northeast 444 511 37,000  Level FlightAware ADS-B
Fri 04:46:05 AM 38.7540 -78.6740 59° Northeast 444 511 37,000  Level FlightAware ADS-B
Fri 04:46:46 AM 38.8020 -78.5710 59° Northeast 444 511 37,000  Level FlightAware ADS-B
Fri 04:47:26 AM 38.8430 -78.4800 60° Northeast 444 511 37,000  Level FlightAware ADS-B
Fri 04:48:08 AM 38.8870 -78.3840 59° Northeast 445 512 37,000  Level FlightAware ADS-B
Fri 04:48:52 AM 38.9330 -78.2840 59° Northeast 446 513 37,000  Level FlightAware ADS-B
Fri 04:49:03 AM 38.9445 -78.2577 61° Northeast 37,000  Level FlightAware ADS-B
Fri 04:49:41 AM 38.9841 -78.1702 60° Northeast 446 513 37,000  Level FlightAware ADS-B
Fri 04:50:12 AM 39.0159 -78.1000 60° Northeast 444 511 37,000  Level FlightAware ADS-B
Fri 04:50:42 AM 39.0470 -78.0314 60° Northeast 443 510 37,000  Level FlightAware ADS-B
Fri 04:51:13 AM 39.0784 -77.9617 60° Northeast 443 510 37,000  Level FlightAware ADS-B
Fri 04:51:44 AM 39.1100 -77.8918 60° Northeast 443 510 37,000  Level FlightAware ADS-B
Fri 04:52:14 AM 39.1409 -77.8231 60° Northeast 443 510 37,000  Level FlightAware ADS-B
Fri 04:52:44 AM 39.1718 -77.7539 60° Northeast 443 510 37,000  Level FlightAware ADS-B
Fri 04:53:14 AM 39.2023 -77.6854 60° Northeast 443 510 37,000  Level FlightAware ADS-B
Fri 04:53:45 AM 39.2331 -77.6163 60° Northeast 445 512 37,000  Level FlightAware ADS-B
Fri 04:54:15 AM 39.2639 -77.5471 60° Northeast 445 512 37,000  Level FlightAware ADS-B
Fri 04:54:45 AM 39.2946 -77.4780 60° Northeast 444 511 37,000  Level FlightAware ADS-B
Fri 04:55:15 AM 39.3254 -77.4080 60° Northeast 444 511 37,000  Level FlightAware ADS-B
Fri 04:55:45 AM 39.3561 -77.3385 60° Northeast 442 509 37,000  Level FlightAware ADS-B
Fri 04:56:16 AM 39.3867 -77.2690 60° Northeast 440 506 37,000  Level FlightAware ADS-B
Fri 04:56:46 AM 39.4170 -77.2000 60° Northeast 439 505 37,000  Level FlightAware ADS-B
Fri 04:57:17 AM 39.4477 -77.1301 60° Northeast 437 503 37,000  Level FlightAware ADS-B
Fri 04:57:47 AM 39.4777 -77.0619 60° Northeast 436 502 37,000  Level FlightAware ADS-B
Fri 04:58:17 AM 39.5077 -76.9937 60° Northeast 437 503 37,000  Level FlightAware ADS-B
Fri 04:58:48 AM 39.5380 -76.9241 61° Northeast 439 505 37,000  Level FlightAware ADS-B
Fri 04:59:18 AM 39.5681 -76.8547 61° Northeast 441 507 37,000  Level FlightAware ADS-B
Fri 04:59:48 AM 39.5987 -76.7843 61° Northeast 443 510 37,000  Level FlightAware ADS-B
Fri 05:00:18 AM 39.6286 -76.7151 61° Northeast 445 512 37,000 98 Level FlightAware ADS-B
Fri 05:00:49 AM 39.6591 -76.6445 61° Northeast 445 512 37,100 98 Climbing FlightAware ADS-B
Fri 05:01:19 AM 39.6891 -76.5748 61° Northeast 444 511 37,100  Level FlightAware ADS-B
Fri 05:01:49 AM 39.7193 -76.5045 61° Northeast 442 509 37,100 -100 Level FlightAware ADS-B
Fri 05:02:19 AM 39.7490 -76.4354 61° Northeast 440 506 37,000 -100 Descending FlightAware ADS-B
Fri 05:02:49 AM 39.7787 -76.3658 61° Northeast 437 503 37,000  Level FlightAware ADS-B
Fri 05:03:20 AM 39.8085 -76.2968 61° Northeast 434 499 37,000  Level FlightAware ADS-B
Fri 05:03:50 AM 39.8380 -76.2277 61° Northeast 431 496 37,000  Level FlightAware ADS-B
Fri 05:04:21 AM 39.8673 -76.1588 61° Northeast 429 494 37,000  Level FlightAware ADS-B
Fri 05:04:51 AM 39.8964 -76.0902 61° Northeast 427 491 37,000  Level FlightAware ADS-B
Fri 05:05:21 AM 39.9249 -76.0223 61° Northeast 427 491 37,000  Level FlightAware ADS-B
Fri 05:05:50 AM 39.9524 -75.9570 61° Northeast 425 489 37,000  Level FlightAware ADS-B
Fri 05:06:21 AM 39.9809 -75.8893 61° Northeast 424 488 37,000  Level FlightAware ADS-B
Fri 05:06:51 AM 40.0096 -75.8212 61° Northeast 424 488 37,000  Level FlightAware ADS-B
Fri 05:07:21 AM 40.0380 -75.7532 61° Northeast 424 488 37,000  Level FlightAware ADS-B
Fri 05:07:52 AM 40.0663 -75.6860 61° Northeast 424 488 37,000  Level FlightAware ADS-B
Fri 05:08:22 AM 40.0947 -75.6179 61° Northeast 425 489 37,000  Level FlightAware ADS-B
Fri 05:08:52 AM 40.1232 -75.5498 61° Northeast 426 490 37,000  Level FlightAware ADS-B
Fri 05:09:23 AM 40.1517 -75.4810 62° Northeast 427 491 37,000  Level FlightAware ADS-B
Fri 05:09:53 AM 40.1804 -75.4117 62° Northeast 427 491 37,000  Level FlightAware ADS-B
Fri 05:10:25 AM 40.2100 -75.3407 61° Northeast 427 491 37,000  Level FlightAware ADS-B
Fri 05:10:55 AM 40.2384 -75.2721 62° Northeast 427 491 37,000  Level FlightAware ADS-B
Fri 05:11:25 AM 40.2665 -75.2035 62° Northeast 428 493 37,000  Level FlightAware ADS-B
Fri 05:11:55 AM 40.2945 -75.1347 62° Northeast 428 493 37,000  Level FlightAware ADS-B
Fri 05:12:26 AM 40.3230 -75.0650 62° Northeast 428 493 37,000  Level FlightAware ADS-B
Fri 05:12:56 AM 40.3517 -74.9953 62° Northeast 430 495 37,000  Level FlightAware ADS-B
Fri 05:13:26 AM 40.3799 -74.9266 62° Northeast 431 496 37,000  Level FlightAware ADS-B
Fri 05:14:00 AM 40.4116 -74.8491 62° Northeast 432 497 37,000  Level FlightAware ADS-B
Fri 05:14:30 AM 40.4399 -74.7795 62° Northeast 433 498 37,000  Level FlightAware ADS-B
Fri 05:15:00 AM 40.4683 -74.7095 62° Northeast 433 498 37,000  Level FlightAware ADS-B
Fri 05:15:30 AM 40.4964 -74.6400 62° Northeast 433 498 37,000  Level FlightAware ADS-B
Fri 05:16:01 AM 40.5251 -74.5691 62° Northeast 433 498 37,000  Level FlightAware ADS-B
Fri 05:16:31 AM 40.5533 -74.4988 62° Northeast 433 498 37,000  Level FlightAware ADS-B
Fri 05:17:01 AM 40.5815 -74.4283 62° Northeast 434 499 37,000  Level FlightAware ADS-B
Fri 05:17:32 AM 40.6100 -74.3572 62° Northeast 434 499 37,000  Level FlightAware ADS-B
Fri 05:18:02 AM 40.6381 -74.2871 62° Northeast 434 499 37,000  Level FlightAware ADS-B
Fri 05:18:31 AM 40.6649 -74.2201 62° Northeast 436 502 37,000  Level FlightAware ADS-B
Fri 05:19:01 AM 40.6930 -74.1492 62° Northeast 437 503 37,000  Level FlightAware ADS-B
Fri 05:19:31 AM 40.7216 -74.0776 62° Northeast 438 504 37,000  Level FlightAware ADS-B
Fri 05:20:02 AM 40.7500 -74.0057 62° Northeast 439 505 37,000  Level FlightAware ADS-B
Fri 05:20:32 AM 40.7782 -73.9341 63° Northeast 438 504 37,000  Level FlightAware ADS-B
Fri 05:21:02 AM 40.8063 -73.8625 63° Northeast 439 505 37,000  Level FlightAware ADS-B
Fri 05:21:32 AM 40.8347 -73.7903 63° Northeast 439 505 37,000  Level FlightAware ADS-B
Fri 05:22:02 AM 40.8625 -73.7189 63° Northeast 438 504 37,000  Level FlightAware ADS-B
Fri 05:22:33 AM 40.8903 -73.6469 63° Northeast 440 506 37,000  Level FlightAware ADS-B
Fri 05:23:04 AM 40.9197 -73.5720 63° Northeast 438 504 37,000  Level FlightAware ADS-B
Fri 05:23:34 AM 40.9477 -73.5007 63° Northeast 439 505 37,000  Level FlightAware ADS-B
Fri 05:24:05 AM 40.9759 -73.4285 63° Northeast 440 506 37,000  Level FlightAware ADS-B
Fri 05:24:35 AM 41.0044 -73.3550 63° Northeast 441 507 37,000  Level FlightAware ADS-B
Fri 05:25:06 AM 41.0330 -73.2808 63° Northeast 441 507 37,000 -387 Level FlightAware ADS-B
Fri 05:25:37 AM 41.0617 -73.2065 63° Northeast 439 505 36,600 -787 Descending FlightAware ADS-B
Fri 05:26:07 AM 41.0898 -73.1338 63° Northeast 442 509 36,200 -984 Descending FlightAware ADS-B
Fri 05:26:38 AM 41.1177 -73.0608 63° Northeast 441 507 35,600 -984 Descending FlightAware ADS-B
Fri 05:27:08 AM 41.1457 -72.9872 63° Northeast 442 509 35,200 -984 Descending FlightAware ADS-B
Fri 05:27:39 AM 41.1737 -72.9137 63° Northeast 445 512 34,600 -1,082 Descending FlightAware ADS-B
Fri 05:28:09 AM 41.2020 -72.8391 63° Northeast 453 521 34,100 -1,000 Descending FlightAware ADS-B
Fri 05:28:39 AM 41.2308 -72.7632 63° Northeast 460 529 33,600 -984 Descending FlightAware ADS-B
Fri 05:29:10 AM 41.2603 -72.6851 63° Northeast 464 534 33,100 -968 Descending FlightAware ADS-B
Fri 05:29:41 AM 41.2897 -72.6068 63° Northeast 467 537 32,600 -1,475 Descending FlightAware ADS-B
Fri 05:30:11 AM 41.3194 -72.5278 63° Northeast 469 540 31,600 -2,032 Descending FlightAware ADS-B
Fri 05:30:43 AM 41.3498 -72.4476 63° Northeast 462 532 30,500 -1,677 Descending FlightAware ADS-B
Fri 05:31:44 AM 41.4070 -72.2950 63° Northeast 452 520 29,000 -1,714 Descending FlightAware ADS-B
Fri 05:32:35 AM 41.4500 -72.1780 64° Northeast 464 534 27,300 -2,250 Descending FlightAware ADS-B
Fri 05:33:20 AM 41.4930 -72.0650 63° Northeast 453 521 25,400 -2,552 Descending FlightAware ADS-B
Fri 05:34:02 AM 41.5300 -71.9640 64° Northeast 446 513 23,600 -2,541 Descending FlightAware ADS-B
Fri 05:34:45 AM 41.5730 -71.8460 64° Northeast 437 503 21,800 -2,386 Descending FlightAware ADS-B
Fri 05:35:25 AM 41.6070 -71.7540 64° Northeast 425 489 20,300 -2,250 Descending FlightAware ADS-B
Fri 05:36:05 AM 41.6390 -71.6660 64° Northeast 414 476 18,800 -2,259 Descending FlightAware ADS-B
Fri 05:36:50 AM 41.6780 -71.5580 64° Northeast 407 468 17,100 -2,259 Descending FlightAware ADS-B
Fri 05:37:30 AM 41.7120 -71.4650 64° Northeast 395 455 15,600 -2,047 Descending FlightAware ADS-B
Fri 05:38:15 AM 41.7500 -71.3710 62° Northeast 381 438 14,200 -1,906 Descending FlightAware ADS-B
Fri 05:38:55 AM 41.7840 -71.2910 60° Northeast 372 428 12,900 -1,976 Descending FlightAware ADS-B
Fri 05:39:40 AM 41.8230 -71.2010 60° Northeast 362 417 11,400 -1,553 Descending FlightAware ADS-B
Fri 05:40:20 AM 41.8530 -71.1300 60° Northeast 338 389 10,700 -424 Descending FlightAware ADS-B
Fri 05:41:19 AM 41.8800 -71.0770 56° Northeast 335 386 10,700 -104 Level FlightAware ADS-B
Fri 05:42:15 AM 41.9690 -70.9400 49° Northeast 334 384 10,500 -396 Descending FlightAware ADS-B
Fri 05:42:50 AM 42.0010 -70.8890 50° Northeast 310 357 10,100 -923 Descending FlightAware ADS-B
Fri 05:43:20 AM 42.0280 -70.8490 48° Northeast 303 349 9,500 -1,355 Descending FlightAware ADS-B
Fri 05:43:52 AM 42.0610 -70.8000 48° Northeast 292 336 8,700 -1,385 Descending FlightAware ADS-B
Fri 05:44:12 AM 42.0780 -70.7760 46° Northeast 285 328 8,300 -1,080 Descending FlightAware ADS-B
Fri 05:44:42 AM 42.1040 -70.7390 47° Northeast 285 328 7,800 -600 Descending FlightAware ADS-B
Fri 05:45:12 AM 42.1350 -70.6940 47° Northeast 286 329 7,700 -133 Descending FlightAware ADS-B
Fri 05:45:27 AM 42.1450 -70.6800 46° Northeast 285 328 7,700 -141 Level FlightAware ADS-B
Fri 05:46:37 AM 42.2270 -70.6300 24° Northeast 258 297 7,500 -600 Descending FlightAware ADS-B
Fri 05:47:07 AM 42.2640 -70.6240 North 258 297 6,700 -1,610 Descending FlightAware ADS-B
Fri 05:47:18 AM 42.2760 -70.6230 North 258 297 6,400 -1,800 Descending FlightAware ADS-B
Fri 05:47:37 AM 42.3000 -70.6290 350° North 265 305 5,800 -1,660 Descending FlightAware ADS-B
Fri 05:48:05 AM 42.3300 -70.6390 346° North 267 307 5,100 -1,320 Descending FlightAware ADS-B
Fri 05:48:27 AM 42.3600 -70.6490 346° North 262 302 4,700 -462 Descending FlightAware ADS-B
Fri 05:48:57 AM 42.3940 -70.6660 340° North 266 306 4,700  Level FlightAware ADS-B
Fri 05:49:12 AM 42.4070 -70.6850 313° West 256 295 4,700 -750 Level FlightAware ADS-B
Fri 05:49:37 AM 42.4240 -70.7180 305° West 253 291 4,200 -1,400 Descending FlightAware ADS-B
Fri 05:50:12 AM 42.4490 -70.7630 307° West 251 289 3,300 -1,200 Descending FlightAware ADS-B
Fri 05:50:52 AM 42.4730 -70.8060 307° West 250 288 2,700 -545 Descending FlightAware ADS-B
Fri 05:51:18 AM 42.4920 -70.8470 302° West 251 289 2,700  Level FlightAware ADS-B
Fri 05:51:33 AM 42.4960 -70.8650 287° West 249 287 2,700 -609 Level FlightAware ADS-B
Fri 05:52:27 AM 42.4950 -70.9340 269° West 199 229 2,000 -786 Descending FlightAware ADS-B
Fri 05:52:57 AM 42.4680 -70.9550 210° Southwest 188 216 1,600 -737 Descending FlightAware ADS-B
Fri 05:53:24 AM 42.4500 -70.9640 200° South 162 186 1,300 -667 Descending FlightAware ADS-B
Fri 05:53:33 AM 42.4430 -70.9670 198° South 159 183 1,200 -698 Descending FlightAware ADS-B
Fri 05:54:07 AM 42.4230 -70.9770 200° South 126 145 800 -750 Descending FlightAware ADS-B
Fri 05:54:37 AM 42.4070 -70.9850 200° South 122 140 400 -655 Descending FlightAware ADS-B
Fri 05:55:02 AM 42.3940 -70.9910 199° South 123 142 200 -480 Descending FlightAware ADS-B

Login

Don't have an account? Register now (free) for customized features, flight alerts, and more!